Time;durP1;ratioP1;P1;durP2;ratioP2;P2;SDS_P1;SDS_P2;PMS_P1;PMS_P2;Temp;Humidity;BMP_temperature;BMP_pressure;BME280_temperature;BME280_humidity;BME280_pressure;Samples;Min_cycle;Max_cycle;Signal;HPM_P1;HPM_P2
2022/07/24 00:01:02;;;;;;;6.82;6.32;;;;;;;22.45;100.00;18774.00;5074247;28;20268;-61
2022/07/24 00:03:30;;;;;;;9.13;6.53;;;;;;;22.16;100.00;12223.00;5074255;28;20199;-61
2022/07/24 00:05:57;;;;;;;9.73;5.93;;;;;;;22.24;100.00;9938.41;5073963;28;20184;-61
2022/07/24 00:08:24;;;;;;;6.63;4.93;;;;;;;22.20;100.00;9937.66;5073849;28;20284;-62
2022/07/24 00:10:50;;;;;;;6.72;6.03;;;;;;;22.28;100.00;12552.69;5074095;28;20197;-61
2022/07/24 00:13:17;;;;;;;10.85;6.10;;;;;;;22.36;100.00;11574.25;5074081;28;20705;-62
2022/07/24 00:15:46;;;;;;;7.55;6.53;;;;;;;22.14;100.00;12875.97;5073979;28;20232;-62
2022/07/24 00:18:13;;;;;;;13.40;6.28;;;;;;;22.07;100.00;11567.44;5073993;28;20230;-62
2022/07/24 00:20:41;;;;;;;6.82;6.30;;;;;;;22.09;100.00;12547.91;5074584;28;20643;-61
2022/07/24 00:23:08;;;;;;;7.00;6.13;;;;;;;22.01;100.00;11239.44;5073894;28;20257;-62
2022/07/24 00:25:35;;;;;;;5.57;4.88;;;;;;;22.06;100.00;11567.19;5073277;28;20181;-61
2022/07/24 00:28:02;;;;;;;9.13;7.97;;;;;;;21.97;100.00;9606.28;5073425;28;20196;-62
2022/07/24 00:30:29;;;;;;;10.32;7.40;;;;;;;21.93;100.00;9279.13;5073690;28;20216;-61
2022/07/24 00:32:56;;;;;;;6.43;6.00;;;;;;;21.98;100.00;8953.75;5073724;28;20184;-62
2022/07/24 00:35:23;;;;;;;8.73;6.72;;;;;;;21.85;100.00;6668.41;5073593;28;20682;-61
2022/07/24 00:37:51;;;;;;;8.75;6.20;;;;;;;21.59;100.00;4383.94;5073660;28;20575;-61
2022/07/24 00:40:18;;;;;;;12.50;9.07;;;;;;;21.49;100.00;-822.66;5073466;28;20189;-61
2022/07/24 00:42:45;;;;;;;5.90;5.28;;;;;;;21.41;100.00;-3422.22;5073218;28;20189;-61
2022/07/24 00:45:12;;;;;;;9.13;6.45;;;;;;;21.51;100.00;-3422.19;5073432;28;20192;-60
2022/07/24 00:47:39;;;;;;;10.70;5.15;;;;;;;21.63;100.00;-3422.19;5073307;28;20185;-62
2022/07/24 00:50:07;;;;;;;4.35;4.13;;;;;;;21.55;100.00;-4071.81;5073388;28;20185;-61
2022/07/24 00:52:35;;;;;;;5.10;4.90;;;;;;;21.58;100.00;-4721.38;5073030;28;20187;-61
2022/07/24 00:55:03;;;;;;;4.93;4.72;;;;;;;21.56;100.00;-8291.31;5072993;28;20216;-61
2022/07/24 00:57:31;;;;;;;9.60;8.60;;;;;;;21.63;100.00;-8291.91;5073177;28;20533;-61
2022/07/24 00:59:58;;;;;;;7.95;7.22;;;;;;;21.53;100.00;-7966.72;5073200;28;20199;-61
2022/07/24 01:02:25;;;;;;;7.70;7.13;;;;;;;21.47;100.00;-8290.63;5073301;28;20195;-61
2022/07/24 01:04:52;;;;;;;5.85;5.38;;;;;;;21.43;100.00;-10559.69;5072756;28;20219;-61
2022/07/24 01:07:19;;;;;;;7.63;5.50;;;;;;;21.29;100.00;-12501.53;5072783;28;20196;-63
2022/07/24 01:09:46;;;;;;;7.28;5.03;;;;;;;21.22;100.00;-13471.78;5072698;28;20197;-62
2022/07/24 01:12:15;;;;;;;5.65;5.15;;;;;;;21.25;100.00;-13795.84;5072692;28;20729;-62
2022/07/24 01:14:42;;;;;;;6.35;4.53;;;;;;;21.48;100.00;-14123.41;5072581;28;20195;-61
2022/07/24 01:17:09;;;;;;;5.82;5.53;;;;;;;21.60;100.00;-13477.72;5071434;28;20192;-62
2022/07/24 01:19:35;;;;;;;5.22;5.03;;;;;;;21.69;100.00;-12183.22;5072755;28;20185;-61
2022/07/24 01:22:04;;;;;;;5.25;5.05;;;;;;;21.78;100.00;-11536.22;5072371;28;20185;-62
2022/07/24 01:24:31;;;;;;;7.03;6.53;;;;;;;21.75;100.00;-9914.72;5072388;28;20192;-61
2022/07/24 01:26:58;;;;;;;6.82;6.43;;;;;;;21.67;100.00;-8940.94;5072579;28;20192;-61
2022/07/24 01:29:25;;;;;;;7.45;6.95;;;;;;;21.43;100.00;-11207.84;5072693;28;20624;-61
2022/07/24 01:31:52;;;;;;;6.68;6.30;;;;;;;21.45;100.00;-13151.50;5072838;28;20192;-61
2022/07/24 01:34:18;;;;;;;5.43;5.03;;;;;;;21.43;100.00;-14446.28;5071963;28;20204;-61
2022/07/24 01:36:45;;;;;;;5.40;5.00;;;;;;;21.38;100.00;-14445.41;5071583;28;20230;-61
2022/07/24 01:39:14;;;;;;;5.40;5.00;;;;;;;21.29;100.00;-15090.97;5072378;28;20275;-62
2022/07/24 01:41:41;;;;;;;5.38;4.85;;;;;;;21.34;100.00;-17032.91;5072214;28;20185;-61
2022/07/24 01:44:07;;;;;;;6.25;5.93;;;;;;;21.37;100.00;-15739.69;5072205;28;20187;-62
2022/07/24 01:46:34;;;;;;;5.38;5.07;;;;;;;21.34;100.00;-15739.09;5072483;28;20189;-61
2022/07/24 01:49:01;;;;;;;5.85;5.45;;;;;;;21.31;100.00;-16385.34;5071965;28;20276;-61
2022/07/24 01:51:28;;;;;;;4.67;4.27;;;;;;;21.23;100.00;-17353.72;5072117;28;20185;-61
2022/07/24 01:53:55;;;;;;;5.25;4.85;;;;;;;21.38;100.00;-17357.06;5072461;28;20184;-61
2022/07/24 01:56:23;;;;;;;5.53;5.07;;;;;;;21.35;100.00;-15739.19;5072258;28;20208;-61
2022/07/24 01:58:50;;;;;;;6.00;5.60;;;;;;;21.38;100.00;-14769.13;5072029;28;20675;-61
2022/07/24 02:01:17;;;;;;;6.40;5.82;;;;;;;21.43;100.00;-15417.19;5072101;28;20211;-62
2022/07/24 02:03:46;;;;;;;5.68;5.45;;;;;;;21.38;100.00;-15416.25;5072046;28;20200;-61
2022/07/24 02:06:13;;;;;;;5.53;5.22;;;;;;;21.46;100.00;-17035.28;5071918;28;20624;-61
2022/07/24 02:08:40;;;;;;;6.18;5.88;;;;;;;21.66;100.00;-14774.09;5071748;28;20184;-61
2022/07/24 02:11:07;;;;;;;5.80;5.32;;;;;;;21.45;100.00;-13799.16;5071902;28;20201;-61
2022/07/24 02:13:35;;;;;;;6.22;5.80;;;;;;;21.45;100.00;-12179.94;5071741;28;20184;-61
2022/07/24 02:16:03;;;;;;;7.30;6.53;;;;;;;21.43;100.00;-13475.06;5071870;28;20598;-61
2022/07/24 02:18:29;;;;;;;6.38;5.90;;;;;;;21.36;100.00;-13797.75;5071871;28;20188;-62
2022/07/24 02:20:56;;;;;;;7.47;6.28;;;;;;;21.53;100.00;-13800.41;5072091;28;20598;-61
2022/07/24 02:23:23;;;;;;;7.40;6.80;;;;;;;21.28;100.00;-13796.34;5071483;28;20180;-61
2022/07/24 02:25:51;;;;;;;8.15;6.35;;;;;;;21.29;100.00;-14443.91;5071506;28;20200;-61
2022/07/24 02:28:19;;;;;;;6.45;6.15;;;;;;;21.23;100.00;-14119.25;5071581;28;20338;-61
2022/07/24 02:30:51;;;;;;;7.63;6.63;;;;;;;21.23;100.00;-14766.41;5072458;28;20185;-62
2022/07/24 02:33:18;;;;;;;8.27;7.35;;;;;;;21.05;100.00;-16703.34;5071949;28;20195;-62
2022/07/24 02:35:44;;;;;;;8.95;6.63;;;;;;;20.88;100.00;-17669.25;5071390;28;20209;-61
2022/07/24 02:38:11;;;;;;;6.00;5.60;;;;;;;20.73;100.00;-18313.69;5071499;28;20287;-61
2022/07/24 02:40:38;;;;;;;5.60;5.22;;;;;;;20.87;100.00;-18317.03;5071240;28;20188;-61
2022/07/24 02:43:05;;;;;;;6.43;5.88;;;;;;;20.75;100.00;-18314.16;5071674;28;20189;-61
2022/07/24 02:45:34;;;;;;;8.10;5.82;;;;;;;20.70;100.00;-18312.84;5071335;28;20512;-61
2022/07/24 02:48:02;;;;;;;6.45;6.15;;;;;;;20.83;100.00;-18315.94;5074782;28;20216;-61
2022/07/24 02:50:32;;;;;;;5.87;5.57;;;;;;;20.87;100.00;-18316.91;5075422;28;20188;-61
2022/07/24 02:52:59;;;;;;;6.93;6.35;;;;;;;20.58;100.00;-18310.00;5075178;28;20196;-61
2022/07/24 02:55:28;;;;;;;6.40;6.10;;;;;;;20.64;100.00;-18311.41;5075702;28;20568;-61
2022/07/24 02:57:55;;;;;;;6.47;6.18;;;;;;;20.54;100.00;-18309.03;5075222;28;20195;-61
2022/07/24 03:00:22;;;;;;;6.85;6.55;;;;;;;20.70;100.00;-18312.84;5075537;28;20674;-61
2022/07/24 03:02:49;;;;;;;7.55;6.93;;;;;;;20.58;100.00;-18310.00;5075516;28;20189;-61
2022/07/24 03:05:17;;;;;;;9.20;6.30;;;;;;;20.71;100.00;-18313.09;5075023;28;20192;-61
2022/07/24 03:07:44;;;;;;;7.13;6.40;;;;;;;20.83;100.00;-18315.94;5075155;28;20280;-62
2022/07/24 03:10:12;;;;;;;7.00;6.43;;;;;;;20.93;100.00;-18318.44;5075268;28;20197;-61
2022/07/24 03:12:40;;;;;;;9.63;8.82;;;;;;;20.95;100.00;-18318.81;5075294;28;20603;-61
2022/07/24 03:15:08;;;;;;;9.88;8.85;;;;;;;21.03;100.00;-18320.59;5075312;28;20189;-60
2022/07/24 03:17:35;;;;;;;7.93;7.23;;;;;;;20.87;100.00;-18316.91;5075012;28;20180;-61
2022/07/24 03:20:02;;;;;;;8.50;7.80;;;;;;;21.01;100.00;-18320.22;5075006;28;20192;-61
2022/07/24 03:22:30;;;;;;;11.15;7.60;;;;;;;21.12;100.00;-18322.84;5075027;28;20619;-61
2022/07/24 03:24:57;;;;;;;9.20;7.32;;;;;;;21.41;100.00;-18329.75;5074713;28;20181;-61
2022/07/24 03:27:24;;;;;;;8.50;7.80;;;;;;;21.91;100.00;-18015.84;5074956;28;20612;-62
2022/07/24 03:29:51;;;;;;;7.78;7.15;;;;;;;22.40;100.00;-9921.28;5074898;28;20220;-61
2022/07/24 03:32:17;;;;;;;15.05;8.75;;;;;;;22.93;100.00;-4073.03;5073718;28;20655;-62
2022/07/24 03:34:44;;;;;;;12.60;9.70;;;;;;;23.34;100.00;-7003.44;5074661;28;20199;-61
2022/07/24 03:37:11;;;;;;;15.05;8.00;;;;;;;23.41;100.00;-3747.66;5074575;28;20212;-61
2022/07/24 03:39:39;;;;;;;8.05;7.28;;;;;;;23.37;100.00;2121.19;5075400;28;20189;-62
2022/07/24 03:42:06;;;;;;;15.98;7.60;;;;;;;23.35;100.00;5712.56;5074473;28;20181;-61
2022/07/24 03:44:33;;;;;;;9.50;8.13;;;;;;;23.43;100.00;1795.38;5074528;28;20181;-60
2022/07/24 03:47:00;;;;;;;21.92;8.73;;;;;;;23.56;100.00;1470.16;5074192;28;20180;-61
2022/07/24 03:49:27;;;;;;;11.70;8.25;;;;;;;23.61;100.00;1796.97;5074781;28;20559;-61
2022/07/24 03:51:54;;;;;;;12.75;8.68;;;;;;;23.63;100.00;1470.66;5074550;28;20193;-61
2022/07/24 03:54:21;;;;;;;21.80;8.50;;;;;;;23.66;100.00;1797.34;5074039;28;20188;-60
2022/07/24 03:56:50;;;;;;;24.50;9.43;;;;;;;23.89;100.00;7683.00;5074299;28;20299;-61
2022/07/24 03:59:17;;;;;;;14.77;10.35;;;;;;;24.33;100.00;22785.13;5073521;28;20208;-61
2022/07/24 04:01:43;;;;;;;21.17;8.40;;;;;;;24.12;100.00;24749.69;5074436;28;20595;-61
2022/07/24 04:04:10;;;;;;;17.83;8.40;;;;;;;24.09;100.00;17847.56;5074033;28;20189;-61
2022/07/24 04:06:37;;;;;;;14.63;8.27;;;;;;;24.30;100.00;28708.81;5074241;28;20181;-61
2022/07/24 04:09:05;;;;;;;16.95;9.25;;;;;;;24.43;100.00;25751.16;5074311;28;20294;-63
2022/07/24 04:11:32;;;;;;;12.38;9.02;;;;;;;24.72;100.00;32029.09;5074383;28;20418;-62
2022/07/24 04:14:01;;;;;;;14.77;8.23;;;;;;;24.96;100.00;35676.31;5073772;28;20192;-61
2022/07/24 04:16:28;;;;;;;16.55;8.55;;;;;;;25.22;100.00;49939.25;5073808;28;20200;-62
2022/07/24 04:18:55;;;;;;;9.02;8.20;;;;;;;25.48;100.00;69283.13;5073768;28;20188;-62
2022/07/24 04:21:21;;;;;;;26.00;9.15;;;;;;;25.61;100.00;80677.38;5073919;28;20575;-61
2022/07/24 04:23:48;;;;;;;10.32;7.90;;;;;;;25.84;100.00;99202.94;5073807;28;20560;-62
2022/07/24 04:26:15;;;;;;;12.63;7.60;;;;;;;26.13;100.00;121245.88;5073833;28;20188;-61
2022/07/24 04:28:42;;;;;;;16.20;8.68;;;;;;;26.40;100.00;131304.16;5073679;28;20573;-61
2022/07/24 04:31:11;;;;;;;10.40;7.50;;;;;;;26.47;100.00;146569.31;5073481;28;20242;-62
2022/07/24 04:33:38;;;;;;;8.70;8.02;;;;;;;26.79;100.00;152778.91;5073378;28;20184;-62
2022/07/24 04:36:06;;;;;;;9.75;6.93;;;;;;;26.96;100.00;152822.44;5073841;28;20215;-62
2022/07/24 04:38:33;;;;;;;22.75;8.93;;;;;;;27.18;100.00;152877.44;5073435;28;20195;-62
2022/07/24 04:41:00;;;;;;;17.00;8.20;;;;;;;27.34;100.00;152917.06;5073568;28;20196;-61
2022/07/24 04:43:27;;;;;;;17.50;7.88;;;;;;;27.55;100.00;152972.16;5073379;28;20231;-62
2022/07/24 04:45:54;;;;;;;27.40;9.10;;;;;;;27.52;100.00;152964.50;5073002;28;20192;-61
2022/07/24 04:48:22;;;;;;;29.77;9.32;;;;;;;27.65;100.00;152996.47;5073380;28;20189;-62
2022/07/24 04:50:49;;;;;;;31.98;10.23;;;;;;;27.39;100.00;152931.16;5073420;28;20682;-61
2022/07/24 04:53:16;;;;;;;36.90;9.40;;;;;;;27.75;100.00;153022.09;5072950;28;20185;-62
2022/07/24 04:55:43;;;;;;;28.17;9.00;;;;;;;27.93;100.00;153066.84;5073177;28;20188;-61
2022/07/24 04:58:10;;;;;;;29.25;9.35;;;;;;;28.15;100.00;153124.50;5073176;28;20188;-62
2022/07/24 05:00:37;;;;;;;28.17;9.02;;;;;;;28.34;100.00;153171.88;5072779;28;20185;-61
2022/07/24 05:03:04;;;;;;;36.90;10.98;;;;;;;28.42;100.00;153191.06;5073048;28;20196;-61
2022/07/24 05:05:32;;;;;;;19.85;8.48;;;;;;;28.59;100.00;153235.91;5073530;28;20576;-61
2022/07/24 05:07:59;;;;;;;30.13;10.10;;;;;;;28.79;100.00;153284.56;5072866;28;20272;-61
2022/07/24 05:10:26;;;;;;;44.30;10.05;;;;;;;28.94;100.00;153323.03;5073012;28;20204;-62
2022/07/24 05:12:53;;;;;;;14.88;8.57;;;;;;;28.73;100.00;153269.25;5072513;28;20238;-61
2022/07/24 05:15:19;;;;;;;14.00;8.23;;;;;;;28.71;100.00;153265.38;5072582;28;20201;-61
2022/07/24 05:17:47;;;;;;;17.83;9.10;;;;;;;28.97;100.00;153330.69;5072378;28;20211;-61
2022/07/24 05:20:14;;;;;;;10.25;7.85;;;;;;;29.15;100.00;153376.81;5073180;28;20185;-60
2022/07/24 05:22:42;;;;;;;16.13;7.93;;;;;;;29.06;100.00;153353.75;5072399;28;20279;-62
2022/07/24 05:25:10;;;;;;;13.38;7.60;;;;;;;29.26;100.00;153404.97;5072926;28;20573;-62
2022/07/24 05:27:37;;;;;;;9.35;6.28;;;;;;;29.22;100.00;153394.72;5072589;28;20191;-61
2022/07/24 05:30:04;;;;;;;13.48;6.85;;;;;;;29.38;100.00;153435.75;5072614;28;20184;-61
2022/07/24 05:32:31;;;;;;;22.10;7.38;;;;;;;29.59;100.00;153487.00;5072569;28;20558;-61
2022/07/24 05:34:58;;;;;;;7.65;6.93;;;;;;;29.56;100.00;153480.59;5072282;28;20191;-61
2022/07/24 05:37:25;;;;;;;9.13;7.22;;;;;;;29.66;100.00;153504.94;5072295;28;20554;-61
2022/07/24 05:39:53;;;;;;;6.75;6.28;;;;;;;29.54;100.00;153475.44;5072220;28;20195;-61
2022/07/24 05:42:20;;;;;;;7.50;5.45;;;;;;;29.28;100.00;153410.06;5072514;28;20188;-61
2022/07/24 05:44:47;;;;;;;8.95;5.78;;;;;;;29.57;100.00;153481.88;5072312;28;20184;-61
2022/07/24 05:47:14;;;;;;;7.90;5.47;;;;;;;29.66;100.00;153504.94;5071956;28;20184;-61
2022/07/24 05:49:41;;;;;;;6.65;5.15;;;;;;;29.91;100.00;153570.34;5072634;28;20196;-61
2022/07/24 05:52:07;;;;;;;6.18;5.50;;;;;;;30.04;100.00;153602.38;5072288;28;20181;-62
2022/07/24 05:54:34;;;;;;;5.18;4.85;;;;;;;30.37;100.00;153686.97;5071947;28;20185;-61
2022/07/24 05:57:03;;;;;;;4.40;4.10;;;;;;;30.28;100.00;153663.88;5071720;28;20247;-61
2022/07/24 05:59:29;;;;;;;4.43;4.22;;;;;;;30.49;100.00;153715.19;5071649;28;20200;-61
2022/07/24 06:01:56;;;;;;;3.80;3.50;;;;;;;30.78;100.00;153789.53;5071998;28;20567;-61
2022/07/24 06:04:23;;;;;;;4.50;4.18;;;;;;;30.91;100.00;153821.59;5071630;28;20189;-61
2022/07/24 06:06:50;;;;;;;8.75;4.30;;;;;;;31.06;100.00;153861.44;5071660;28;20188;-61
2022/07/24 06:09:17;;;;;;;3.92;3.30;;;;;;;31.23;100.00;153903.75;5071961;28;20192;-60
2022/07/24 06:11:44;;;;;;;3.45;3.25;;;;;;;32.01;100.00;154101.28;5071774;28;20327;-61
2022/07/24 06:14:12;;;;;;;3.80;3.35;;;;;;;31.20;100.00;153897.28;5071741;28;20193;-61
2022/07/24 06:16:39;;;;;;;3.97;3.33;;;;;;;31.16;100.00;153887.03;5071702;28;20579;-61
2022/07/24 06:19:06;;;;;;;3.97;3.78;;;;;;;31.80;100.00;154048.69;5070339;28;20271;-61
2022/07/24 06:21:33;;;;;;;3.70;3.40;;;;;;;31.89;100.00;154071.78;5071063;28;20195;-62
2022/07/24 06:24:00;;;;;;;4.18;3.88;;;;;;;32.00;100.00;154100.00;5071567;28;20193;-62
2022/07/24 06:26:26;;;;;;;3.70;3.47;;;;;;;32.25;100.00;154162.97;5071877;28;20260;-62
2022/07/24 06:28:53;;;;;;;3.90;3.70;;;;;;;32.45;100.00;154212.97;5071747;28;20192;-62
2022/07/24 06:31:22;;;;;;;5.18;4.45;;;;;;;32.54;100.00;154236.09;5071647;28;20184;-61
2022/07/24 06:33:49;;;;;;;3.88;3.67;;;;;;;32.51;100.00;154228.34;5071780;28;20682;-61
2022/07/24 06:36:16;;;;;;;4.95;4.15;;;;;;;32.23;100.00;154156.50;5071600;28;20207;-61
2022/07/24 06:38:45;;;;;;;3.92;3.70;;;;;;;32.19;100.00;154147.53;5071411;28;20191;-61
2022/07/24 06:41:12;;;;;;;5.15;3.97;;;;;;;32.83;100.00;154310.56;5071981;28;20208;-62
2022/07/24 06:43:39;;;;;;;4.43;3.67;;;;;;;33.79;100.00;154554.59;5071300;28;20185;-61
2022/07/24 06:46:06;;;;;;;4.70;4.00;;;;;;;34.32;100.00;154688.25;5071439;28;20195;-62
2022/07/24 06:48:34;;;;;;;3.70;3.50;;;;;;;33.55;98.75;154492.94;5071280;28;20188;-62
2022/07/24 06:51:01;;;;;;;4.30;3.50;;;;;;;33.43;100.00;154462.13;5071437;28;20184;-61
2022/07/24 06:53:28;;;;;;;4.30;3.42;;;;;;;33.70;94.29;154530.19;5071076;28;20216;-61
2022/07/24 06:55:55;;;;;;;3.47;3.38;;;;;;;32.57;100.00;154243.78;5071181;28;20189;-62
2022/07/24 06:58:22;;;;;;;4.43;3.42;;;;;;;33.22;100.00;154409.47;5071676;28;20208;-61
2022/07/24 07:00:50;;;;;;;5.82;3.38;;;;;;;32.63;100.00;154257.97;5071489;28;20204;-61
2022/07/24 07:03:18;;;;;;;3.60;3.40;;;;;;;32.28;100.00;154169.34;5071903;28;20192;-62
2022/07/24 07:05:46;;;;;;;4.00;3.65;;;;;;;32.31;100.00;154177.03;5071730;28;20662;-60
2022/07/24 07:08:13;;;;;;;3.88;3.30;;;;;;;32.60;100.00;154251.47;5071309;28;20274;-61
2022/07/24 07:10:40;;;;;;;3.70;3.40;;;;;;;32.90;100.00;154328.53;5071295;28;20320;-62
2022/07/24 07:13:07;;;;;;;3.70;3.30;;;;;;;33.40;100.00;154455.66;5071903;28;20228;-63
2022/07/24 07:15:34;;;;;;;2.97;2.88;;;;;;;33.52;100.00;154486.47;5072133;28;20645;-61
2022/07/24 07:18:01;;;;;;;3.75;3.30;;;;;;;33.18;100.00;154397.91;5070831;28;20742;-62
2022/07/24 07:20:28;;;;;;;5.82;3.30;;;;;;;32.79;100.00;154300.31;5071660;28;20185;-61
2022/07/24 07:22:56;;;;;;;3.92;2.97;;;;;;;32.64;100.00;154261.78;5071139;28;20228;-61
2022/07/24 07:25:23;;;;;;;6.28;3.25;;;;;;;32.60;100.00;154252.75;5071174;28;20189;-62
2022/07/24 07:27:50;;;;;;;3.30;3.20;;;;;;;32.80;100.00;154302.88;5071708;28;20563;-61
2022/07/24 07:30:17;;;;;;;2.95;2.83;;;;;;;32.35;100.00;154187.31;5071249;28;20189;-61
2022/07/24 07:32:44;;;;;;;3.17;3.08;;;;;;;32.38;99.21;154195.03;5071265;28;20193;-62
2022/07/24 07:35:11;;;;;;;3.38;3.17;;;;;;;32.86;97.03;154318.25;5073843;28;20193;-61
2022/07/24 07:37:38;;;;;;;3.00;2.90;;;;;;;32.75;93.49;154290.03;5075232;28;20231;-61
2022/07/24 07:40:07;;;;;;;3.08;2.88;;;;;;;32.55;94.03;154238.63;5074385;28;20548;-61
2022/07/24 07:42:34;;;;;;;2.80;2.60;;;;;;;32.82;96.72;154308.00;5074244;28;20181;-61
2022/07/24 07:45:01;;;;;;;2.80;2.65;;;;;;;32.56;91.53;154241.19;5074201;28;20220;-61
2022/07/24 07:47:28;;;;;;;4.35;2.70;;;;;;;32.86;91.01;154318.25;5074799;28;20184;-62
2022/07/24 07:49:58;;;;;;;2.60;2.50;;;;;;;32.93;90.83;154334.97;5074312;28;20191;-61
2022/07/24 07:52:24;;;;;;;4.70;3.10;;;;;;;33.11;95.95;154381.16;5074206;28;20192;-61
2022/07/24 07:54:52;;;;;;;2.90;2.80;;;;;;;33.23;95.39;154410.78;5074758;28;20263;-61
2022/07/24 07:57:20;;;;;;;3.10;2.90;;;;;;;33.21;94.34;154406.91;5073972;28;20236;-61
2022/07/24 07:59:47;;;;;;;2.50;2.35;;;;;;;33.01;72.36;154356.81;5078204;28;20188;-60
2022/07/24 08:02:15;;;;;;;2.00;1.90;;;;;;;33.49;55.37;154477.50;5093536;28;20267;-62
2022/07/24 08:04:42;;;;;;;2.13;2.10;;;;;;;33.66;78.91;154519.91;5091712;28;20703;-61
2022/07/24 08:07:09;;;;;;;3.00;2.80;;;;;;;33.93;84.54;154590.56;5092822;28;20202;-61
2022/07/24 08:09:37;;;;;;;2.70;2.30;;;;;;;34.19;68.51;154654.84;5094502;28;20184;-61
2022/07/24 08:12:04;;;;;;;3.83;2.30;;;;;;;34.61;62.64;154762.75;5094088;28;20274;-61
2022/07/24 08:14:33;;;;;;;4.65;2.70;;;;;;;34.92;70.49;154839.91;5094118;28;20241;-60
2022/07/24 08:17:00;;;;;;;2.40;2.30;;;;;;;35.09;58.29;154884.91;5094092;28;20666;-61
2022/07/24 08:19:27;;;;;;;2.58;2.47;;;;;;;35.02;64.56;154865.59;5093688;28;20275;-62
2022/07/24 08:21:53;;;;;;;2.92;2.63;;;;;;;35.21;60.84;154914.50;5092521;28;20224;-61
2022/07/24 08:24:21;;;;;;;2.17;2.10;;;;;;;34.93;54.02;154842.44;5094075;28;20562;-61
2022/07/24 08:26:48;;;;;;;3.65;2.70;;;;;;;34.71;57.80;154788.47;5094347;28;20248;-63
2022/07/24 08:29:15;;;;;;;2.60;2.40;;;;;;;34.29;58.47;154680.50;5093610;28;20184;-60
2022/07/24 08:31:44;;;;;;;2.55;2.45;;;;;;;34.23;68.37;154665.13;5093506;28;20195;-61
2022/07/24 08:34:11;;;;;;;3.50;2.45;;;;;;;33.84;68.74;154567.44;5093554;28;20275;-62
2022/07/24 08:36:38;;;;;;;2.92;2.42;;;;;;;33.75;66.17;154543.03;5093896;28;20222;-61
2022/07/24 08:39:05;;;;;;;2.30;2.20;;;;;;;33.72;60.21;154535.34;5093849;28;20742;-61
2022/07/24 08:41:35;;;;;;;6.65;2.78;;;;;;;33.16;64.72;154392.75;5093702;28;20210;-62
2022/07/24 08:44:02;;;;;;;2.67;2.40;;;;;;;33.14;63.26;154387.66;5093253;28;20195;-61
2022/07/24 08:46:30;;;;;;;2.70;2.53;;;;;;;32.97;64.69;154346.47;5093136;28;20577;-61
2022/07/24 08:48:59;;;;;;;2.50;2.40;;;;;;;33.11;64.40;154379.88;5092977;28;20222;-61
2022/07/24 08:51:33;;;;;;;3.15;2.65;;;;;;;32.78;57.50;154297.72;5093544;28;20635;-62
2022/07/24 08:54:02;;;;;;;2.70;2.50;;;;;;;32.62;62.36;154256.66;5093321;28;20268;-62
2022/07/24 08:56:29;;;;;;;3.70;2.65;;;;;;;32.63;66.66;154257.97;5092035;28;20188;-61
2022/07/24 08:58:56;;;;;;;3.72;2.85;;;;;;;32.62;63.64;154256.66;5093795;28;20663;-61
2022/07/24 09:01:23;;;;;;;2.45;2.35;;;;;;;32.52;64.09;154230.94;5093520;28;20180;-60
2022/07/24 09:03:50;;;;;;;2.25;2.15;;;;;;;32.53;66.09;154234.81;5093128;28;20198;-60
2022/07/24 09:06:19;;;;;;;2.22;2.08;;;;;;;32.26;72.91;154164.19;5093426;28;20184;-61
2022/07/24 09:08:58;;;;;;;2.85;2.65;;;;;;;32.12;75.51;154130.84;5093031;28;20342;-61
2022/07/24 09:11:25;;;;;;;2.75;2.55;;;;;;;32.03;87.91;154106.44;5092965;28;20608;-61
2022/07/24 09:16:37;;;;;;;4.25;2.85;;;;;;;32.36;76.05;154189.88;5092923;28;20761;-60
2022/07/24 09:19:07;;;;;;;2.40;2.30;;;;;;;32.23;74.39;154156.50;5092651;28;20210;-61
2022/07/24 09:21:37;;;;;;;2.42;2.30;;;;;;;32.45;91.24;154214.28;5092750;28;20227;-60
2022/07/24 09:24:13;;;;;;;2.45;2.33;;;;;;;32.45;79.61;154212.97;5093177;28;20555;-62
2022/07/24 09:26:45;;;;;;;2.67;2.47;;;;;;;32.55;84.69;154239.91;5093036;28;20193;-61
2022/07/24 09:29:13;;;;;;;2.40;2.30;;;;;;;32.28;85.13;154170.66;5092951;28;20254;-61
2022/07/24 09:31:57;;;;;;;2.97;2.60;;;;;;;32.21;90.07;154152.66;5092878;28;20237;-60
2022/07/24 09:34:25;;;;;;;2.72;2.53;;;;;;;32.14;91.64;154134.69;5093588;27;20195;-61
2022/07/24 09:37:01;;;;;;;2.60;2.50;;;;;;;32.30;90.76;154174.47;5092596;28;20199;-62
2022/07/24 09:39:33;;;;;;;5.57;2.22;;;;;;;32.16;87.00;154141.16;5092799;28;20183;-61
2022/07/24 09:42:02;;;;;;;3.15;2.83;;;;;;;31.96;95.73;154088.44;5092286;28;20188;-61
2022/07/24 09:44:29;;;;;;;2.60;2.42;;;;;;;31.61;100.00;153999.97;5092773;28;20642;-61
2022/07/24 09:46:58;;;;;;;2.80;2.65;;;;;;;31.59;98.86;153996.09;5093119;28;20184;-60
2022/07/24 09:49:27;;;;;;;3.42;2.22;;;;;;;31.65;98.25;154010.22;5092208;28;20184;-61
2022/07/24 09:52:13;;;;;;;2.97;2.33;;;;;;;31.52;100.00;153978.13;5092466;28;20740;-61
2022/07/24 09:54:42;;;;;;;2.67;2.47;;;;;;;31.30;100.00;153921.66;5092306;28;20191;-61
2022/07/24 09:57:23;;;;;;;2.40;2.40;;;;;;;31.04;100.00;153856.28;5091414;28;20190;-61
2022/07/24 09:59:53;;;;;;;6.93;2.67;;;;;;;30.88;100.00;153815.19;5092370;28;20188;-61
2022/07/24 10:02:22;;;;;;;2.70;2.60;;;;;;;31.02;100.00;153849.88;5092362;28;20194;-61
2022/07/24 10:04:51;;;;;;;2.70;2.60;;;;;;;31.18;100.00;153890.91;5092108;28;20179;-61
2022/07/24 10:07:21;;;;;;;2.65;2.45;;;;;;;31.12;100.00;153876.78;5092003;28;20184;-61
2022/07/24 10:09:50;;;;;;;2.95;2.47;;;;;;;31.38;100.00;153942.19;5092179;28;20192;-62
2022/07/24 10:12:20;;;;;;;3.13;2.92;;;;;;;31.46;100.00;153962.72;5092001;28;20239;-61
2022/07/24 10:14:50;;;;;;;3.15;2.95;;;;;;;30.95;100.00;153833.13;5091809;28;20206;-62
2022/07/24 10:17:18;;;;;;;3.65;2.60;;;;;;;30.85;100.00;153807.53;5091955;28;20188;-62
2022/07/24 10:19:46;;;;;;;2.83;2.72;;;;;;;30.47;100.00;153710.09;5091758;28;20188;-62
2022/07/24 10:22:15;;;;;;;3.00;2.83;;;;;;;30.44;100.00;153703.66;5091740;28;20188;-61
2022/07/24 10:24:58;;;;;;;3.17;3.08;;;;;;;30.81;100.00;153798.50;5091907;28;20191;-61
2022/07/24 10:27:29;;;;;;;3.35;3.10;;;;;;;30.79;100.00;153793.41;5091698;28;20191;-61
2022/07/24 10:29:58;;;;;;;6.18;2.88;;;;;;;30.69;100.00;153766.47;5091764;28;20184;-60
2022/07/24 10:32:27;;;;;;;3.85;2.58;;;;;;;30.31;100.00;153671.56;5090881;28;20630;-62
2022/07/24 10:35:05;;;;;;;6.07;3.10;;;;;;;30.51;100.00;153721.59;5091994;28;20231;-62
2022/07/24 10:37:42;;;;;;;5.70;2.83;;;;;;;30.97;100.00;153837.00;5091738;28;20190;-61
2022/07/24 10:40:19;;;;;;;3.10;3.00;;;;;;;31.09;100.00;153869.09;5091867;28;20187;-61
2022/07/24 10:43:15;;;;;;;3.40;3.20;;;;;;;30.46;100.00;153708.81;5092526;28;20237;-61
2022/07/24 10:45:44;;;;;;;3.28;2.97;;;;;;;30.26;100.00;153658.72;5091481;28;20191;-62
2022/07/24 10:48:32;;;;;;;3.53;3.30;;;;;;;30.15;100.00;153630.56;5092459;28;20245;-63
2022/07/24 10:51:06;;;;;;;3.85;3.35;;;;;;;29.96;100.00;153580.59;5091686;28;20184;-61
2022/07/24 10:53:48;;;;;;;3.55;3.25;;;;;;;30.03;100.00;153599.81;5091418;28;20188;-61
2022/07/24 10:56:20;;;;;;;3.45;3.10;;;;;;;30.15;100.00;153630.56;5091674;28;20188;-61
2022/07/24 10:59:07;;;;;;;3.50;3.20;;;;;;;29.83;100.00;153548.50;5091360;28;20248;-62
2022/07/24 11:01:39;;;;;;;3.60;3.22;;;;;;;29.73;100.00;153524.16;5091811;28;20191;-62
2022/07/24 11:04:29;;;;;;;4.18;3.42;;;;;;;29.61;100.00;153492.13;5091725;28;20525;-60
2022/07/24 11:07:00;;;;;;;3.65;3.47;;;;;;;29.15;100.00;153376.81;5091595;28;20700;-62
2022/07/24 11:09:28;;;;;;;3.90;3.80;;;;;;;29.02;100.00;153344.78;5094742;28;20184;-62
2022/07/24 11:12:07;;;;;;;3.88;3.72;;;;;;;28.86;100.00;153302.50;5094115;28;20232;-61
2022/07/24 11:14:51;;;;;;;3.78;3.58;;;;;;;28.50;100.00;153212.84;5095995;28;20511;-63
2022/07/24 11:17:38;;;;;;;4.07;3.88;;;;;;;28.35;100.00;153174.41;5096137;28;20194;-61
2022/07/24 11:20:07;;;;;;;4.57;3.80;;;;;;;28.13;100.00;153118.13;5096417;28;20195;-62
2022/07/24 11:22:48;;;;;;;4.60;3.45;;;;;;;28.31;100.00;153164.16;5095754;28;20207;-61
2022/07/24 11:25:17;;;;;;;7.05;3.55;;;;;;;28.45;100.00;153198.75;5095458;28;20184;-62
2022/07/24 11:27:52;;;;;;;4.32;3.97;;;;;;;28.53;100.00;153220.50;5095590;28;20200;-61